sensor_id;sensor_type;location;lat;lon;timestamp;P1;durP1;ratioP1;P2;durP2;ratioP2
15402;SDS011;7799;53.478;10.170;2022-12-11T00:01:31;5.57;;;4.60;;
15402;SDS011;7799;53.478;10.170;2022-12-11T00:03:59;5.03;;;4.23;;
15402;SDS011;7799;53.478;10.170;2022-12-11T00:06:26;5.87;;;4.57;;
15402;SDS011;7799;53.478;10.170;2022-12-11T00:08:53;4.07;;;3.63;;
15402;SDS011;7799;53.478;10.170;2022-12-11T00:11:20;4.07;;;3.43;;
15402;SDS011;7799;53.478;10.170;2022-12-11T00:13:47;3.83;;;3.43;;
15402;SDS011;7799;53.478;10.170;2022-12-11T00:16:14;3.93;;;3.37;;
15402;SDS011;7799;53.478;10.170;2022-12-11T00:18:41;5.03;;;4.10;;
15402;SDS011;7799;53.478;10.170;2022-12-11T00:21:11;5.83;;;4.47;;
15402;SDS011;7799;53.478;10.170;2022-12-11T00:23:39;5.20;;;4.30;;
15402;SDS011;7799;53.478;10.170;2022-12-11T00:26:07;6.57;;;5.00;;
15402;SDS011;7799;53.478;10.170;2022-12-11T00:28:35;7.53;;;6.00;;
15402;SDS011;7799;53.478;10.170;2022-12-11T00:31:02;6.70;;;5.83;;
15402;SDS011;7799;53.478;10.170;2022-12-11T00:33:29;10.77;;;7.63;;
15402;SDS011;7799;53.478;10.170;2022-12-11T00:35:56;8.43;;;6.70;;
15402;SDS011;7799;53.478;10.170;2022-12-11T00:38:24;8.33;;;6.17;;
15402;SDS011;7799;53.478;10.170;2022-12-11T00:40:50;7.40;;;5.70;;
15402;SDS011;7799;53.478;10.170;2022-12-11T00:43:17;5.13;;;4.47;;
15402;SDS011;7799;53.478;10.170;2022-12-11T00:45:44;7.00;;;5.27;;
15402;SDS011;7799;53.478;10.170;2022-12-11T00:48:12;5.30;;;4.20;;
15402;SDS011;7799;53.478;10.170;2022-12-11T00:50:38;6.30;;;5.10;;
15402;SDS011;7799;53.478;10.170;2022-12-11T00:53:05;6.27;;;5.07;;
15402;SDS011;7799;53.478;10.170;2022-12-11T00:55:36;7.10;;;5.13;;
15402;SDS011;7799;53.478;10.170;2022-12-11T00:58:04;6.70;;;4.93;;
15402;SDS011;7799;53.478;10.170;2022-12-11T01:00:31;6.47;;;4.93;;
15402;SDS011;7799;53.478;10.170;2022-12-11T01:02:57;6.07;;;4.57;;
15402;SDS011;7799;53.478;10.170;2022-12-11T01:05:24;6.20;;;4.70;;
15402;SDS011;7799;53.478;10.170;2022-12-11T01:07:50;5.40;;;4.43;;
15402;SDS011;7799;53.478;10.170;2022-12-11T01:10:17;6.57;;;5.10;;
15402;SDS011;7799;53.478;10.170;2022-12-11T01:12:50;5.23;;;4.07;;
15402;SDS011;7799;53.478;10.170;2022-12-11T01:15:18;5.50;;;4.33;;
15402;SDS011;7799;53.478;10.170;2022-12-11T01:17:45;6.60;;;4.77;;
15402;SDS011;7799;53.478;10.170;2022-12-11T01:20:12;5.40;;;4.13;;
15402;SDS011;7799;53.478;10.170;2022-12-11T01:22:38;7.17;;;4.23;;
15402;SDS011;7799;53.478;10.170;2022-12-11T01:25:05;5.67;;;4.60;;
15402;SDS011;7799;53.478;10.170;2022-12-11T01:27:33;5.83;;;4.80;;
15402;SDS011;7799;53.478;10.170;2022-12-11T01:30:01;5.73;;;4.33;;
15402;SDS011;7799;53.478;10.170;2022-12-11T01:32:29;4.60;;;3.93;;
15402;SDS011;7799;53.478;10.170;2022-12-11T01:34:56;5.83;;;4.30;;
15402;SDS011;7799;53.478;10.170;2022-12-11T01:37:22;5.10;;;3.83;;
15402;SDS011;7799;53.478;10.170;2022-12-11T01:39:49;4.77;;;4.00;;
15402;SDS011;7799;53.478;10.170;2022-12-11T01:42:17;5.20;;;4.13;;
15402;SDS011;7799;53.478;10.170;2022-12-11T01:47:52;5.03;;;4.07;;
15402;SDS011;7799;53.478;10.170;2022-12-11T01:50:21;5.20;;;4.37;;
15402;SDS011;7799;53.478;10.170;2022-12-11T01:52:48;6.07;;;4.93;;
15402;SDS011;7799;53.478;10.170;2022-12-11T01:55:15;7.00;;;5.57;;
15402;SDS011;7799;53.478;10.170;2022-12-11T01:57:43;5.23;;;4.40;;
15402;SDS011;7799;53.478;10.170;2022-12-11T02:00:11;5.33;;;4.80;;
15402;SDS011;7799;53.478;10.170;2022-12-11T02:02:38;5.80;;;4.47;;
15402;SDS011;7799;53.478;10.170;2022-12-11T02:05:06;5.07;;;4.30;;
15402;SDS011;7799;53.478;10.170;2022-12-11T02:07:34;5.23;;;4.03;;
15402;SDS011;7799;53.478;10.170;2022-12-11T02:10:04;4.43;;;3.80;;
15402;SDS011;7799;53.478;10.170;2022-12-11T02:12:33;3.63;;;3.07;;
15402;SDS011;7799;53.478;10.170;2022-12-11T02:15:06;3.67;;;2.93;;
15402;SDS011;7799;53.478;10.170;2022-12-11T02:17:39;3.20;;;2.87;;
15402;SDS011;7799;53.478;10.170;2022-12-11T02:20:09;3.03;;;2.50;;
15402;SDS011;7799;53.478;10.170;2022-12-11T02:25:25;2.90;;;2.70;;
15402;SDS011;7799;53.478;10.170;2022-12-11T02:28:09;5.77;;;4.00;;
15402;SDS011;7799;53.478;10.170;2022-12-11T02:30:43;4.50;;;3.60;;
15402;SDS011;7799;53.478;10.170;2022-12-11T02:33:14;4.33;;;3.70;;
15402;SDS011;7799;53.478;10.170;2022-12-11T02:35:42;3.77;;;3.20;;
15402;SDS011;7799;53.478;10.170;2022-12-11T02:38:11;3.53;;;3.23;;
15402;SDS011;7799;53.478;10.170;2022-12-11T02:40:39;5.60;;;3.97;;
15402;SDS011;7799;53.478;10.170;2022-12-11T02:43:09;5.33;;;4.33;;
15402;SDS011;7799;53.478;10.170;2022-12-11T02:45:38;4.20;;;3.47;;
15402;SDS011;7799;53.478;10.170;2022-12-11T02:48:06;5.03;;;3.90;;
15402;SDS011;7799;53.478;10.170;2022-12-11T02:50:35;3.80;;;3.27;;
15402;SDS011;7799;53.478;10.170;2022-12-11T02:53:03;4.50;;;3.83;;
15402;SDS011;7799;53.478;10.170;2022-12-11T02:55:32;4.20;;;3.50;;
15402;SDS011;7799;53.478;10.170;2022-12-11T02:58:01;3.87;;;3.43;;
15402;SDS011;7799;53.478;10.170;2022-12-11T03:00:31;4.17;;;3.20;;
15402;SDS011;7799;53.478;10.170;2022-12-11T03:02:58;3.73;;;3.33;;
15402;SDS011;7799;53.478;10.170;2022-12-11T03:05:25;3.47;;;3.10;;
15402;SDS011;7799;53.478;10.170;2022-12-11T03:07:52;3.73;;;3.00;;
15402;SDS011;7799;53.478;10.170;2022-12-11T03:10:19;4.17;;;3.00;;
15402;SDS011;7799;53.478;10.170;2022-12-11T03:12:47;2.90;;;2.40;;
15402;SDS011;7799;53.478;10.170;2022-12-11T03:15:16;2.90;;;2.60;;
15402;SDS011;7799;53.478;10.170;2022-12-11T03:17:49;4.17;;;3.20;;
15402;SDS011;7799;53.478;10.170;2022-12-11T03:20:24;3.37;;;2.90;;
15402;SDS011;7799;53.478;10.170;2022-12-11T03:22:55;3.73;;;2.97;;
15402;SDS011;7799;53.478;10.170;2022-12-11T03:25:25;3.67;;;3.00;;
15402;SDS011;7799;53.478;10.170;2022-12-11T03:27:55;3.83;;;3.27;;
15402;SDS011;7799;53.478;10.170;2022-12-11T03:30:23;3.77;;;3.10;;
15402;SDS011;7799;53.478;10.170;2022-12-11T03:32:54;3.30;;;3.00;;
15402;SDS011;7799;53.478;10.170;2022-12-11T03:35:23;3.30;;;3.00;;
15402;SDS011;7799;53.478;10.170;2022-12-11T03:37:51;5.53;;;4.80;;
15402;SDS011;7799;53.478;10.170;2022-12-11T03:40:20;7.33;;;5.53;;
15402;SDS011;7799;53.478;10.170;2022-12-11T03:42:47;6.97;;;4.83;;
15402;SDS011;7799;53.478;10.170;2022-12-11T03:45:16;7.23;;;5.20;;
15402;SDS011;7799;53.478;10.170;2022-12-11T03:47:46;5.93;;;5.00;;
15402;SDS011;7799;53.478;10.170;2022-12-11T03:50:15;5.40;;;4.53;;
15402;SDS011;7799;53.478;10.170;2022-12-11T03:52:43;7.47;;;5.90;;
15402;SDS011;7799;53.478;10.170;2022-12-11T03:55:11;9.43;;;7.23;;
15402;SDS011;7799;53.478;10.170;2022-12-11T03:57:39;8.70;;;6.63;;
15402;SDS011;7799;53.478;10.170;2022-12-11T04:00:06;9.53;;;6.73;;
15402;SDS011;7799;53.478;10.170;2022-12-11T04:02:37;8.73;;;6.93;;
15402;SDS011;7799;53.478;10.170;2022-12-11T04:05:04;8.60;;;6.90;;
15402;SDS011;7799;53.478;10.170;2022-12-11T04:07:32;10.30;;;7.70;;
15402;SDS011;7799;53.478;10.170;2022-12-11T04:09:59;6.67;;;5.93;;
15402;SDS011;7799;53.478;10.170;2022-12-11T04:12:26;5.43;;;4.93;;
15402;SDS011;7799;53.478;10.170;2022-12-11T04:14:52;6.60;;;5.47;;
15402;SDS011;7799;53.478;10.170;2022-12-11T04:17:29;4.40;;;4.00;;
15402;SDS011;7799;53.478;10.170;2022-12-11T04:20:13;6.67;;;4.77;;
15402;SDS011;7799;53.478;10.170;2022-12-11T04:22:59;5.67;;;4.90;;
15402;SDS011;7799;53.478;10.170;2022-12-11T04:25:43;4.43;;;3.60;;
15402;SDS011;7799;53.478;10.170;2022-12-11T04:28:10;5.10;;;4.20;;
15402;SDS011;7799;53.478;10.170;2022-12-11T04:30:36;4.87;;;3.70;;
15402;SDS011;7799;53.478;10.170;2022-12-11T04:33:03;5.03;;;3.53;;
15402;SDS011;7799;53.478;10.170;2022-12-11T04:35:30;7.63;;;5.57;;
15402;SDS011;7799;53.478;10.170;2022-12-11T04:37:56;5.37;;;4.57;;
15402;SDS011;7799;53.478;10.170;2022-12-11T04:40:25;7.27;;;5.37;;
15402;SDS011;7799;53.478;10.170;2022-12-11T04:42:52;5.10;;;4.57;;
15402;SDS011;7799;53.478;10.170;2022-12-11T04:45:18;6.17;;;5.33;;
15402;SDS011;7799;53.478;10.170;2022-12-11T04:47:45;7.77;;;5.67;;
15402;SDS011;7799;53.478;10.170;2022-12-11T04:50:12;5.00;;;4.23;;
15402;SDS011;7799;53.478;10.170;2022-12-11T04:52:40;5.97;;;4.50;;
15402;SDS011;7799;53.478;10.170;2022-12-11T04:55:09;8.40;;;5.60;;
15402;SDS011;7799;53.478;10.170;2022-12-11T04:57:37;5.63;;;4.57;;
15402;SDS011;7799;53.478;10.170;2022-12-11T05:02:54;9.20;;;8.03;;
15402;SDS011;7799;53.478;10.170;2022-12-11T05:05:21;12.83;;;8.97;;
15402;SDS011;7799;53.478;10.170;2022-12-11T05:07:48;10.40;;;8.67;;
15402;SDS011;7799;53.478;10.170;2022-12-11T05:10:16;7.93;;;6.93;;
15402;SDS011;7799;53.478;10.170;2022-12-11T05:12:42;9.90;;;7.53;;
15402;SDS011;7799;53.478;10.170;2022-12-11T05:15:09;9.57;;;8.10;;
15402;SDS011;7799;53.478;10.170;2022-12-11T05:17:36;10.23;;;8.53;;
15402;SDS011;7799;53.478;10.170;2022-12-11T05:20:03;8.60;;;6.90;;
15402;SDS011;7799;53.478;10.170;2022-12-11T05:22:30;6.93;;;5.37;;
15402;SDS011;7799;53.478;10.170;2022-12-11T05:24:57;6.63;;;5.60;;
15402;SDS011;7799;53.478;10.170;2022-12-11T05:27:25;6.07;;;4.90;;
15402;SDS011;7799;53.478;10.170;2022-12-11T05:29:51;4.73;;;4.17;;
15402;SDS011;7799;53.478;10.170;2022-12-11T05:32:18;4.80;;;4.30;;
15402;SDS011;7799;53.478;10.170;2022-12-11T05:34:46;5.40;;;4.80;;
15402;SDS011;7799;53.478;10.170;2022-12-11T05:37:13;4.93;;;4.40;;
15402;SDS011;7799;53.478;10.170;2022-12-11T05:39:40;5.93;;;4.70;;
15402;SDS011;7799;53.478;10.170;2022-12-11T05:42:06;4.87;;;4.07;;
15402;SDS011;7799;53.478;10.170;2022-12-11T05:44:34;4.03;;;3.13;;
15402;SDS011;7799;53.478;10.170;2022-12-11T05:47:01;4.47;;;3.33;;
15402;SDS011;7799;53.478;10.170;2022-12-11T05:49:27;3.00;;;2.57;;
15402;SDS011;7799;53.478;10.170;2022-12-11T05:51:54;2.57;;;2.27;;
15402;SDS011;7799;53.478;10.170;2022-12-11T05:54:21;3.20;;;2.70;;
15402;SDS011;7799;53.478;10.170;2022-12-11T05:56:48;3.33;;;2.97;;
15402;SDS011;7799;53.478;10.170;2022-12-11T05:59:15;4.07;;;2.80;;
15402;SDS011;7799;53.478;10.170;2022-12-11T06:01:45;5.10;;;4.17;;
15402;SDS011;7799;53.478;10.170;2022-12-11T06:04:11;6.30;;;4.70;;
15402;SDS011;7799;53.478;10.170;2022-12-11T06:06:38;5.40;;;4.40;;
15402;SDS011;7799;53.478;10.170;2022-12-11T06:09:10;4.00;;;3.47;;
15402;SDS011;7799;53.478;10.170;2022-12-11T06:11:38;4.50;;;4.10;;
15402;SDS011;7799;53.478;10.170;2022-12-11T06:14:05;4.73;;;3.60;;
15402;SDS011;7799;53.478;10.170;2022-12-11T06:16:31;6.03;;;5.00;;
15402;SDS011;7799;53.478;10.170;2022-12-11T06:18:59;6.47;;;4.83;;
15402;SDS011;7799;53.478;10.170;2022-12-11T06:21:27;6.33;;;4.17;;
15402;SDS011;7799;53.478;10.170;2022-12-11T06:23:55;5.20;;;3.83;;
15402;SDS011;7799;53.478;10.170;2022-12-11T06:26:23;5.23;;;4.20;;
15402;SDS011;7799;53.478;10.170;2022-12-11T06:28:50;6.20;;;4.40;;
15402;SDS011;7799;53.478;10.170;2022-12-11T06:31:17;5.63;;;4.07;;
15402;SDS011;7799;53.478;10.170;2022-12-11T06:33:44;4.37;;;3.70;;
15402;SDS011;7799;53.478;10.170;2022-12-11T06:36:14;4.23;;;3.10;;
15402;SDS011;7799;53.478;10.170;2022-12-11T06:38:42;2.70;;;2.30;;
15402;SDS011;7799;53.478;10.170;2022-12-11T06:41:09;3.20;;;2.77;;
15402;SDS011;7799;53.478;10.170;2022-12-11T06:43:36;2.60;;;2.33;;
15402;SDS011;7799;53.478;10.170;2022-12-11T06:46:06;3.03;;;2.40;;
15402;SDS011;7799;53.478;10.170;2022-12-11T06:48:33;3.20;;;2.90;;
15402;SDS011;7799;53.478;10.170;2022-12-11T06:51:03;3.40;;;2.30;;
15402;SDS011;7799;53.478;10.170;2022-12-11T06:53:32;2.20;;;2.00;;
15402;SDS011;7799;53.478;10.170;2022-12-11T06:56:00;2.53;;;2.20;;
15402;SDS011;7799;53.478;10.170;2022-12-11T06:58:28;2.37;;;1.90;;
15402;SDS011;7799;53.478;10.170;2022-12-11T07:00:55;2.63;;;2.00;;
15402;SDS011;7799;53.478;10.170;2022-12-11T07:03:21;2.40;;;2.00;;
15402;SDS011;7799;53.478;10.170;2022-12-11T07:05:49;2.63;;;2.10;;
15402;SDS011;7799;53.478;10.170;2022-12-11T07:08:16;2.33;;;1.90;;
15402;SDS011;7799;53.478;10.170;2022-12-11T07:10:44;2.03;;;1.87;;
15402;SDS011;7799;53.478;10.170;2022-12-11T07:13:10;2.80;;;1.80;;
15402;SDS011;7799;53.478;10.170;2022-12-11T07:15:37;3.63;;;2.83;;
15402;SDS011;7799;53.478;10.170;2022-12-11T07:18:04;4.43;;;3.43;;
15402;SDS011;7799;53.478;10.170;2022-12-11T07:20:30;4.93;;;3.50;;
15402;SDS011;7799;53.478;10.170;2022-12-11T07:22:57;11.00;;;6.20;;
15402;SDS011;7799;53.478;10.170;2022-12-11T07:25:24;17.10;;;9.53;;
15402;SDS011;7799;53.478;10.170;2022-12-11T07:27:52;21.93;;;12.80;;
15402;SDS011;7799;53.478;10.170;2022-12-11T07:30:18;18.53;;;10.53;;
15402;SDS011;7799;53.478;10.170;2022-12-11T07:32:45;15.30;;;9.60;;
15402;SDS011;7799;53.478;10.170;2022-12-11T07:35:12;11.83;;;7.27;;
15402;SDS011;7799;53.478;10.170;2022-12-11T07:37:39;11.40;;;7.67;;
15402;SDS011;7799;53.478;10.170;2022-12-11T07:40:07;8.43;;;5.80;;
15402;SDS011;7799;53.478;10.170;2022-12-11T07:42:34;8.03;;;5.73;;
15402;SDS011;7799;53.478;10.170;2022-12-11T07:45:02;6.93;;;4.67;;
15402;SDS011;7799;53.478;10.170;2022-12-11T07:47:29;5.27;;;4.17;;
15402;SDS011;7799;53.478;10.170;2022-12-11T07:49:56;6.40;;;3.80;;
15402;SDS011;7799;53.478;10.170;2022-12-11T07:52:23;5.53;;;3.90;;
15402;SDS011;7799;53.478;10.170;2022-12-11T07:54:49;5.47;;;3.83;;
15402;SDS011;7799;53.478;10.170;2022-12-11T07:57:16;4.10;;;3.10;;
15402;SDS011;7799;53.478;10.170;2022-12-11T07:59:43;4.57;;;3.30;;
15402;SDS011;7799;53.478;10.170;2022-12-11T08:02:11;3.10;;;2.40;;
15402;SDS011;7799;53.478;10.170;2022-12-11T08:04:37;3.33;;;2.90;;
15402;SDS011;7799;53.478;10.170;2022-12-11T08:07:04;3.57;;;2.30;;
15402;SDS011;7799;53.478;10.170;2022-12-11T08:09:31;2.60;;;2.23;;
15402;SDS011;7799;53.478;10.170;2022-12-11T08:11:57;3.00;;;2.67;;
15402;SDS011;7799;53.478;10.170;2022-12-11T08:14:24;2.63;;;2.40;;
15402;SDS011;7799;53.478;10.170;2022-12-11T08:16:51;3.10;;;2.60;;
15402;SDS011;7799;53.478;10.170;2022-12-11T08:19:19;2.70;;;2.00;;
15402;SDS011;7799;53.478;10.170;2022-12-11T08:21:45;3.77;;;2.43;;
15402;SDS011;7799;53.478;10.170;2022-12-11T08:24:12;3.03;;;2.33;;
15402;SDS011;7799;53.478;10.170;2022-12-11T08:26:40;2.70;;;2.17;;
15402;SDS011;7799;53.478;10.170;2022-12-11T08:29:08;3.60;;;2.60;;
15402;SDS011;7799;53.478;10.170;2022-12-11T08:31:35;2.37;;;2.17;;
15402;SDS011;7799;53.478;10.170;2022-12-11T08:34:02;2.43;;;2.20;;
15402;SDS011;7799;53.478;10.170;2022-12-11T08:36:30;3.00;;;2.70;;
15402;SDS011;7799;53.478;10.170;2022-12-11T08:38:57;3.53;;;2.80;;
15402;SDS011;7799;53.478;10.170;2022-12-11T08:41:24;4.27;;;2.63;;
15402;SDS011;7799;53.478;10.170;2022-12-11T08:43:52;4.77;;;3.53;;
15402;SDS011;7799;53.478;10.170;2022-12-11T08:46:20;5.80;;;3.67;;
15402;SDS011;7799;53.478;10.170;2022-12-11T08:48:48;4.73;;;3.47;;
15402;SDS011;7799;53.478;10.170;2022-12-11T08:51:16;4.93;;;3.47;;
15402;SDS011;7799;53.478;10.170;2022-12-11T08:53:46;7.70;;;5.67;;
15402;SDS011;7799;53.478;10.170;2022-12-11T08:56:13;8.07;;;5.87;;
15402;SDS011;7799;53.478;10.170;2022-12-11T08:58:41;9.17;;;6.47;;
15402;SDS011;7799;53.478;10.170;2022-12-11T09:01:10;7.23;;;5.47;;
15402;SDS011;7799;53.478;10.170;2022-12-11T09:03:38;9.37;;;5.87;;
15402;SDS011;7799;53.478;10.170;2022-12-11T09:06:05;8.07;;;6.67;;
15402;SDS011;7799;53.478;10.170;2022-12-11T09:08:33;6.83;;;5.63;;
15402;SDS011;7799;53.478;10.170;2022-12-11T09:11:06;6.13;;;4.70;;
15402;SDS011;7799;53.478;10.170;2022-12-11T09:13:33;6.37;;;4.70;;
15402;SDS011;7799;53.478;10.170;2022-12-11T09:16:02;6.63;;;5.20;;
15402;SDS011;7799;53.478;10.170;2022-12-11T09:18:29;6.10;;;4.63;;
15402;SDS011;7799;53.478;10.170;2022-12-11T09:20:59;5.60;;;4.10;;
15402;SDS011;7799;53.478;10.170;2022-12-11T09:23:26;5.70;;;4.23;;
15402;SDS011;7799;53.478;10.170;2022-12-11T09:25:53;6.33;;;4.73;;
15402;SDS011;7799;53.478;10.170;2022-12-11T09:28:21;5.27;;;4.13;;
15402;SDS011;7799;53.478;10.170;2022-12-11T09:30:48;6.07;;;4.97;;
15402;SDS011;7799;53.478;10.170;2022-12-11T09:33:15;5.53;;;4.93;;
15402;SDS011;7799;53.478;10.170;2022-12-11T09:35:42;5.67;;;4.90;;
15402;SDS011;7799;53.478;10.170;2022-12-11T09:38:09;6.23;;;4.50;;
15402;SDS011;7799;53.478;10.170;2022-12-11T09:40:38;6.70;;;4.57;;
15402;SDS011;7799;53.478;10.170;2022-12-11T09:43:08;5.90;;;5.13;;
15402;SDS011;7799;53.478;10.170;2022-12-11T09:45:55;7.53;;;5.90;;
15402;SDS011;7799;53.478;10.170;2022-12-11T09:48:23;6.90;;;6.00;;
15402;SDS011;7799;53.478;10.170;2022-12-11T09:50:51;6.37;;;5.30;;
15402;SDS011;7799;53.478;10.170;2022-12-11T09:53:20;6.90;;;5.30;;
15402;SDS011;7799;53.478;10.170;2022-12-11T09:55:52;5.53;;;5.00;;
15402;SDS011;7799;53.478;10.170;2022-12-11T09:58:22;4.53;;;4.03;;
15402;SDS011;7799;53.478;10.170;2022-12-11T10:00:52;4.37;;;3.97;;
15402;SDS011;7799;53.478;10.170;2022-12-11T10:06:15;4.40;;;4.00;;
15402;SDS011;7799;53.478;10.170;2022-12-11T10:08:47;5.53;;;4.97;;
15402;SDS011;7799;53.478;10.170;2022-12-11T10:11:28;5.57;;;4.87;;
15402;SDS011;7799;53.478;10.170;2022-12-11T10:14:05;7.23;;;6.43;;
15402;SDS011;7799;53.478;10.170;2022-12-11T10:16:38;6.20;;;5.60;;
15402;SDS011;7799;53.478;10.170;2022-12-11T10:19:08;6.30;;;5.23;;
15402;SDS011;7799;53.478;10.170;2022-12-11T10:21:37;4.97;;;4.40;;
15402;SDS011;7799;53.478;10.170;2022-12-11T10:24:09;4.50;;;4.10;;
15402;SDS011;7799;53.478;10.170;2022-12-11T10:26:37;4.77;;;4.00;;
15402;SDS011;7799;53.478;10.170;2022-12-11T10:29:05;4.20;;;3.70;;
15402;SDS011;7799;53.478;10.170;2022-12-11T10:31:39;6.00;;;5.40;;
15402;SDS011;7799;53.478;10.170;2022-12-11T10:34:09;5.37;;;4.83;;
15402;SDS011;7799;53.478;10.170;2022-12-11T10:36:39;5.47;;;4.77;;
15402;SDS011;7799;53.478;10.170;2022-12-11T10:39:09;4.57;;;4.17;;
15402;SDS011;7799;53.478;10.170;2022-12-11T10:41:38;5.37;;;4.83;;
15402;SDS011;7799;53.478;10.170;2022-12-11T10:44:15;5.50;;;4.83;;
15402;SDS011;7799;53.478;10.170;2022-12-11T10:46:45;5.33;;;4.60;;
15402;SDS011;7799;53.478;10.170;2022-12-11T10:49:22;4.27;;;3.87;;
15402;SDS011;7799;53.478;10.170;2022-12-11T10:51:50;4.20;;;3.80;;
15402;SDS011;7799;53.478;10.170;2022-12-11T10:54:26;5.00;;;4.50;;
15402;SDS011;7799;53.478;10.170;2022-12-11T10:56:55;5.60;;;5.00;;
15402;SDS011;7799;53.478;10.170;2022-12-11T10:59:23;4.50;;;4.10;;
15402;SDS011;7799;53.478;10.170;2022-12-11T11:01:52;6.10;;;5.50;;
15402;SDS011;7799;53.478;10.170;2022-12-11T11:04:21;6.43;;;5.50;;
15402;SDS011;7799;53.478;10.170;2022-12-11T11:06:59;6.20;;;5.60;;
15402;SDS011;7799;53.478;10.170;2022-12-11T11:09:28;5.83;;;5.00;;
15402;SDS011;7799;53.478;10.170;2022-12-11T11:11:56;5.07;;;4.57;;
15402;SDS011;7799;53.478;10.170;2022-12-11T11:14:23;4.50;;;4.10;;
15402;SDS011;7799;53.478;10.170;2022-12-11T11:16:50;5.20;;;4.70;;
15402;SDS011;7799;53.478;10.170;2022-12-11T11:19:21;6.10;;;5.50;;
15402;SDS011;7799;53.478;10.170;2022-12-11T11:21:50;6.60;;;5.73;;
15402;SDS011;7799;53.478;10.170;2022-12-11T11:24:23;6.43;;;5.50;;
15402;SDS011;7799;53.478;10.170;2022-12-11T11:26:52;6.10;;;5.50;;
15402;SDS011;7799;53.478;10.170;2022-12-11T11:29:22;6.33;;;5.73;;
15402;SDS011;7799;53.478;10.170;2022-12-11T11:31:52;5.83;;;5.23;;
15402;SDS011;7799;53.478;10.170;2022-12-11T11:34:19;5.27;;;4.77;;
15402;SDS011;7799;53.478;10.170;2022-12-11T11:36:54;4.17;;;3.80;;
15402;SDS011;7799;53.478;10.170;2022-12-11T11:39:22;5.10;;;4.60;;
15402;SDS011;7799;53.478;10.170;2022-12-11T11:41:55;5.10;;;4.60;;
15402;SDS011;7799;53.478;10.170;2022-12-11T11:44:26;4.87;;;4.30;;
15402;SDS011;7799;53.478;10.170;2022-12-11T11:46:58;4.47;;;4.07;;
15402;SDS011;7799;53.478;10.170;2022-12-11T11:49:43;5.53;;;4.87;;
15402;SDS011;7799;53.478;10.170;2022-12-11T11:52:16;6.20;;;5.60;;
15402;SDS011;7799;53.478;10.170;2022-12-11T11:54:47;5.13;;;4.63;;
15402;SDS011;7799;53.478;10.170;2022-12-11T11:57:16;5.37;;;4.87;;
15402;SDS011;7799;53.478;10.170;2022-12-11T11:59:48;6.57;;;5.80;;
15402;SDS011;7799;53.478;10.170;2022-12-11T12:02:20;6.77;;;6.07;;
15402;SDS011;7799;53.478;10.170;2022-12-11T12:04:46;6.33;;;5.73;;
15402;SDS011;7799;53.478;10.170;2022-12-11T12:07:22;5.60;;;5.10;;
15402;SDS011;7799;53.478;10.170;2022-12-11T12:09:56;6.23;;;5.63;;
15402;SDS011;7799;53.478;10.170;2022-12-11T12:12:30;5.93;;;5.33;;
15402;SDS011;7799;53.478;10.170;2022-12-11T12:15:09;6.13;;;5.53;;
15402;SDS011;7799;53.478;10.170;2022-12-11T12:17:51;5.80;;;5.20;;
15402;SDS011;7799;53.478;10.170;2022-12-11T12:20:21;6.23;;;5.63;;
15402;SDS011;7799;53.478;10.170;2022-12-11T12:22:56;5.80;;;5.20;;
15402;SDS011;7799;53.478;10.170;2022-12-11T12:25:30;6.10;;;5.50;;
15402;SDS011;7799;53.478;10.170;2022-12-11T12:28:02;5.83;;;5.23;;
15402;SDS011;7799;53.478;10.170;2022-12-11T12:30:36;6.33;;;5.00;;
15402;SDS011;7799;53.478;10.170;2022-12-11T12:33:12;7.00;;;6.30;;
15402;SDS011;7799;53.478;10.170;2022-12-11T12:35:48;9.00;;;7.63;;
15402;SDS011;7799;53.478;10.170;2022-12-11T12:38:20;8.47;;;7.23;;
15402;SDS011;7799;53.478;10.170;2022-12-11T12:40:52;8.20;;;7.40;;
15402;SDS011;7799;53.478;10.170;2022-12-11T12:43:37;8.37;;;6.57;;
15402;SDS011;7799;53.478;10.170;2022-12-11T12:46:26;9.33;;;7.37;;
15402;SDS011;7799;53.478;10.170;2022-12-11T12:49:00;8.73;;;7.83;;
15402;SDS011;7799;53.478;10.170;2022-12-11T12:51:28;8.93;;;7.37;;
15402;SDS011;7799;53.478;10.170;2022-12-11T12:53:56;6.83;;;5.80;;
15402;SDS011;7799;53.478;10.170;2022-12-11T12:56:26;10.13;;;7.73;;
15402;SDS011;7799;53.478;10.170;2022-12-11T12:58:53;7.33;;;5.83;;
15402;SDS011;7799;53.478;10.170;2022-12-11T13:01:20;8.17;;;6.80;;
15402;SDS011;7799;53.478;10.170;2022-12-11T13:03:49;9.37;;;8.33;;
15402;SDS011;7799;53.478;10.170;2022-12-11T13:06:28;8.57;;;6.70;;
15402;SDS011;7799;53.478;10.170;2022-12-11T13:08:56;8.90;;;6.43;;
15402;SDS011;7799;53.478;10.170;2022-12-11T13:11:30;8.07;;;6.87;;
15402;SDS011;7799;53.478;10.170;2022-12-11T13:14:00;6.23;;;5.40;;
15402;SDS011;7799;53.478;10.170;2022-12-11T13:16:33;9.40;;;6.97;;
15402;SDS011;7799;53.478;10.170;2022-12-11T13:19:01;7.30;;;5.97;;
15402;SDS011;7799;53.478;10.170;2022-12-11T13:21:30;9.10;;;7.07;;
15402;SDS011;7799;53.478;10.170;2022-12-11T13:26:41;5.33;;;4.37;;
15402;SDS011;7799;53.478;10.170;2022-12-11T13:31:59;7.80;;;6.23;;
15402;SDS011;7799;53.478;10.170;2022-12-11T13:34:28;7.33;;;5.27;;
15402;SDS011;7799;53.478;10.170;2022-12-11T13:36:58;8.10;;;6.00;;
15402;SDS011;7799;53.478;10.170;2022-12-11T13:39:28;6.33;;;4.90;;
15402;SDS011;7799;53.478;10.170;2022-12-11T13:41:56;7.30;;;4.90;;
15402;SDS011;7799;53.478;10.170;2022-12-11T13:44:25;4.67;;;4.00;;
15402;SDS011;7799;53.478;10.170;2022-12-11T13:46:54;4.20;;;3.50;;
15402;SDS011;7799;53.478;10.170;2022-12-11T13:49:23;4.97;;;3.40;;
15402;SDS011;7799;53.478;10.170;2022-12-11T13:51:50;3.73;;;3.23;;
15402;SDS011;7799;53.478;10.170;2022-12-11T13:54:20;3.60;;;3.10;;
15402;SDS011;7799;53.478;10.170;2022-12-11T13:56:57;3.80;;;3.33;;
15402;SDS011;7799;53.478;10.170;2022-12-11T13:59:26;3.20;;;2.57;;
15402;SDS011;7799;53.478;10.170;2022-12-11T14:01:56;3.10;;;2.80;;
15402;SDS011;7799;53.478;10.170;2022-12-11T14:04:24;3.07;;;2.63;;
15402;SDS011;7799;53.478;10.170;2022-12-11T14:06:52;3.10;;;2.80;;
15402;SDS011;7799;53.478;10.170;2022-12-11T14:09:21;3.07;;;2.67;;
15402;SDS011;7799;53.478;10.170;2022-12-11T14:11:50;4.07;;;2.57;;
15402;SDS011;7799;53.478;10.170;2022-12-11T14:14:18;3.37;;;2.30;;
15402;SDS011;7799;53.478;10.170;2022-12-11T14:16:46;4.60;;;3.23;;
15402;SDS011;7799;53.478;10.170;2022-12-11T14:19:15;5.07;;;3.17;;
15402;SDS011;7799;53.478;10.170;2022-12-11T14:21:53;3.57;;;2.97;;
15402;SDS011;7799;53.478;10.170;2022-12-11T14:24:25;3.30;;;2.37;;
15402;SDS011;7799;53.478;10.170;2022-12-11T14:26:52;4.00;;;2.80;;
15402;SDS011;7799;53.478;10.170;2022-12-11T14:29:23;3.37;;;2.50;;
15402;SDS011;7799;53.478;10.170;2022-12-11T14:31:51;3.17;;;2.70;;
15402;SDS011;7799;53.478;10.170;2022-12-11T14:34:20;3.97;;;3.37;;
15402;SDS011;7799;53.478;10.170;2022-12-11T14:36:48;4.13;;;3.73;;
15402;SDS011;7799;53.478;10.170;2022-12-11T14:39:15;4.70;;;3.70;;
15402;SDS011;7799;53.478;10.170;2022-12-11T14:41:48;3.93;;;3.13;;
15402;SDS011;7799;53.478;10.170;2022-12-11T14:44:16;3.50;;;2.80;;
15402;SDS011;7799;53.478;10.170;2022-12-11T14:46:44;4.13;;;3.03;;
15402;SDS011;7799;53.478;10.170;2022-12-11T14:49:15;3.57;;;2.73;;
15402;SDS011;7799;53.478;10.170;2022-12-11T14:51:44;2.90;;;2.53;;
15402;SDS011;7799;53.478;10.170;2022-12-11T14:54:14;3.77;;;3.03;;
15402;SDS011;7799;53.478;10.170;2022-12-11T14:56:43;4.60;;;3.43;;
15402;SDS011;7799;53.478;10.170;2022-12-11T14:59:16;3.80;;;3.00;;
15402;SDS011;7799;53.478;10.170;2022-12-11T15:01:44;3.30;;;3.00;;
15402;SDS011;7799;53.478;10.170;2022-12-11T15:04:19;3.10;;;2.80;;
15402;SDS011;7799;53.478;10.170;2022-12-11T15:06:49;2.83;;;2.60;;
15402;SDS011;7799;53.478;10.170;2022-12-11T15:09:17;3.80;;;2.67;;
15402;SDS011;7799;53.478;10.170;2022-12-11T15:11:45;2.93;;;2.63;;
15402;SDS011;7799;53.478;10.170;2022-12-11T15:14:13;2.70;;;2.40;;
15402;SDS011;7799;53.478;10.170;2022-12-11T15:16:44;2.90;;;2.20;;